sensor_id;sensor_type;location;lat;lon;timestamp;temperature;humidity
9542;DHT22;4809;48.224;8.572;2023-05-28T00:00:32;12.80;86.10
9542;DHT22;4809;48.224;8.572;2023-05-28T00:02:58;12.70;87.30
9542;DHT22;4809;48.224;8.572;2023-05-28T00:05:24;12.50;87.40
9542;DHT22;4809;48.224;8.572;2023-05-28T00:07:50;12.50;87.80
9542;DHT22;4809;48.224;8.572;2023-05-28T00:10:16;12.40;88.80
9542;DHT22;4809;48.224;8.572;2023-05-28T00:12:42;12.40;88.40
9542;DHT22;4809;48.224;8.572;2023-05-28T00:15:08;12.40;88.30
9542;DHT22;4809;48.224;8.572;2023-05-28T00:17:34;12.50;88.20
9542;DHT22;4809;48.224;8.572;2023-05-28T00:20:00;12.40;88.10
9542;DHT22;4809;48.224;8.572;2023-05-28T00:22:25;12.40;88.50
9542;DHT22;4809;48.224;8.572;2023-05-28T00:24:51;12.40;89.00
9542;DHT22;4809;48.224;8.572;2023-05-28T00:27:16;12.30;89.40
9542;DHT22;4809;48.224;8.572;2023-05-28T00:29:42;12.30;88.80
9542;DHT22;4809;48.224;8.572;2023-05-28T00:32:09;12.30;88.90
9542;DHT22;4809;48.224;8.572;2023-05-28T00:34:35;12.40;88.90
9542;DHT22;4809;48.224;8.572;2023-05-28T00:37:01;12.30;90.00
9542;DHT22;4809;48.224;8.572;2023-05-28T00:39:26;12.30;90.00
9542;DHT22;4809;48.224;8.572;2023-05-28T00:42:05;12.30;90.40
9542;DHT22;4809;48.224;8.572;2023-05-28T00:44:33;12.30;90.30
9542;DHT22;4809;48.224;8.572;2023-05-28T00:46:59;12.20;90.30
9542;DHT22;4809;48.224;8.572;2023-05-28T00:49:25;12.20;90.50
9542;DHT22;4809;48.224;8.572;2023-05-28T00:51:53;12.10;90.60
9542;DHT22;4809;48.224;8.572;2023-05-28T00:54:21;12.00;90.80
9542;DHT22;4809;48.224;8.572;2023-05-28T00:56:47;12.00;91.00
9542;DHT22;4809;48.224;8.572;2023-05-28T00:59:13;12.00;90.90
9542;DHT22;4809;48.224;8.572;2023-05-28T01:01:39;12.00;91.10
9542;DHT22;4809;48.224;8.572;2023-05-28T01:04:05;12.00;90.90
9542;DHT22;4809;48.224;8.572;2023-05-28T01:06:31;11.90;91.40
9542;DHT22;4809;48.224;8.572;2023-05-28T01:08:57;11.80;91.50
9542;DHT22;4809;48.224;8.572;2023-05-28T01:11:23;11.80;92.00
9542;DHT22;4809;48.224;8.572;2023-05-28T01:13:51;11.70;92.10
9542;DHT22;4809;48.224;8.572;2023-05-28T01:16:17;11.60;92.10
9542;DHT22;4809;48.224;8.572;2023-05-28T01:18:43;11.60;92.30
9542;DHT22;4809;48.224;8.572;2023-05-28T01:21:13;11.50;92.60
9542;DHT22;4809;48.224;8.572;2023-05-28T01:23:46;11.50;92.90
9542;DHT22;4809;48.224;8.572;2023-05-28T01:26:13;11.40;93.10
9542;DHT22;4809;48.224;8.572;2023-05-28T01:28:39;11.30;93.40
9542;DHT22;4809;48.224;8.572;2023-05-28T01:31:10;11.20;93.90
9542;DHT22;4809;48.224;8.572;2023-05-28T01:33:36;11.20;94.00
9542;DHT22;4809;48.224;8.572;2023-05-28T01:36:04;11.20;94.10
9542;DHT22;4809;48.224;8.572;2023-05-28T01:38:33;11.20;94.10
9542;DHT22;4809;48.224;8.572;2023-05-28T01:41:01;11.30;94.10
9542;DHT22;4809;48.224;8.572;2023-05-28T01:43:28;11.30;94.10
9542;DHT22;4809;48.224;8.572;2023-05-28T01:45:54;11.30;94.20
9542;DHT22;4809;48.224;8.572;2023-05-28T01:48:20;11.30;94.30
9542;DHT22;4809;48.224;8.572;2023-05-28T01:50:46;11.20;94.50
9542;DHT22;4809;48.224;8.572;2023-05-28T01:53:12;11.20;94.60
9542;DHT22;4809;48.224;8.572;2023-05-28T01:55:38;11.10;94.90
9542;DHT22;4809;48.224;8.572;2023-05-28T01:58:04;11.10;95.00
9542;DHT22;4809;48.224;8.572;2023-05-28T02:00:30;11.10;95.00
9542;DHT22;4809;48.224;8.572;2023-05-28T02:02:57;11.10;94.90
9542;DHT22;4809;48.224;8.572;2023-05-28T02:05:22;11.10;95.00
9542;DHT22;4809;48.224;8.572;2023-05-28T02:07:48;11.10;95.00
9542;DHT22;4809;48.224;8.572;2023-05-28T02:10:14;11.10;95.00
9542;DHT22;4809;48.224;8.572;2023-05-28T02:12:39;11.10;95.00
9542;DHT22;4809;48.224;8.572;2023-05-28T02:15:05;11.10;95.00
9542;DHT22;4809;48.224;8.572;2023-05-28T02:17:32;11.10;94.80
9542;DHT22;4809;48.224;8.572;2023-05-28T02:19:58;11.00;95.10
9542;DHT22;4809;48.224;8.572;2023-05-28T02:22:23;11.00;95.10
9542;DHT22;4809;48.224;8.572;2023-05-28T02:24:49;11.00;95.20
9542;DHT22;4809;48.224;8.572;2023-05-28T02:27:15;11.10;95.20
9542;DHT22;4809;48.224;8.572;2023-05-28T02:29:42;11.10;95.20
9542;DHT22;4809;48.224;8.572;2023-05-28T02:32:08;11.10;95.30
9542;DHT22;4809;48.224;8.572;2023-05-28T02:34:34;11.10;95.40
9542;DHT22;4809;48.224;8.572;2023-05-28T02:37:00;11.10;95.40
9542;DHT22;4809;48.224;8.572;2023-05-28T02:39:26;11.00;95.80
9542;DHT22;4809;48.224;8.572;2023-05-28T02:41:52;11.00;95.80
9542;DHT22;4809;48.224;8.572;2023-05-28T02:44:18;11.00;95.90
9542;DHT22;4809;48.224;8.572;2023-05-28T02:46:44;10.90;95.90
9542;DHT22;4809;48.224;8.572;2023-05-28T02:49:09;11.00;96.10
9542;DHT22;4809;48.224;8.572;2023-05-28T02:51:35;10.90;96.10
9542;DHT22;4809;48.224;8.572;2023-05-28T02:54:01;10.90;96.20
9542;DHT22;4809;48.224;8.572;2023-05-28T02:56:26;10.90;96.10
9542;DHT22;4809;48.224;8.572;2023-05-28T02:58:52;10.90;96.30
9542;DHT22;4809;48.224;8.572;2023-05-28T03:01:18;10.90;96.30
9542;DHT22;4809;48.224;8.572;2023-05-28T03:03:44;10.90;96.30
9542;DHT22;4809;48.224;8.572;2023-05-28T03:06:09;10.90;96.50
9542;DHT22;4809;48.224;8.572;2023-05-28T03:08:35;10.80;96.60
9542;DHT22;4809;48.224;8.572;2023-05-28T03:11:01;10.70;97.20
9542;DHT22;4809;48.224;8.572;2023-05-28T03:13:26;10.60;97.30
9542;DHT22;4809;48.224;8.572;2023-05-28T03:15:52;10.50;97.70
9542;DHT22;4809;48.224;8.572;2023-05-28T03:18:18;10.50;97.80
9542;DHT22;4809;48.224;8.572;2023-05-28T03:20:43;10.50;98.00
9542;DHT22;4809;48.224;8.572;2023-05-28T03:23:09;10.50;98.10
9542;DHT22;4809;48.224;8.572;2023-05-28T03:25:35;10.60;97.90
9542;DHT22;4809;48.224;8.572;2023-05-28T03:28:00;10.50;97.80
9542;DHT22;4809;48.224;8.572;2023-05-28T03:30:26;10.60;97.70
9542;DHT22;4809;48.224;8.572;2023-05-28T03:32:52;10.60;97.80
9542;DHT22;4809;48.224;8.572;2023-05-28T03:35:18;10.60;97.80
9542;DHT22;4809;48.224;8.572;2023-05-28T03:37:43;10.60;97.90
9542;DHT22;4809;48.224;8.572;2023-05-28T03:40:09;10.60;98.00
9542;DHT22;4809;48.224;8.572;2023-05-28T03:42:36;10.70;97.80
9542;DHT22;4809;48.224;8.572;2023-05-28T03:45:03;10.70;97.90
9542;DHT22;4809;48.224;8.572;2023-05-28T03:47:28;10.70;97.90
9542;DHT22;4809;48.224;8.572;2023-05-28T03:49:56;10.70;98.20
9542;DHT22;4809;48.224;8.572;2023-05-28T03:52:22;10.60;98.40
9542;DHT22;4809;48.224;8.572;2023-05-28T03:54:48;10.50;98.50
9542;DHT22;4809;48.224;8.572;2023-05-28T03:57:14;10.50;98.90
9542;DHT22;4809;48.224;8.572;2023-05-28T03:59:39;10.50;98.80
9542;DHT22;4809;48.224;8.572;2023-05-28T04:02:05;10.60;98.80
9542;DHT22;4809;48.224;8.572;2023-05-28T04:04:31;10.60;98.70
9542;DHT22;4809;48.224;8.572;2023-05-28T04:06:56;10.70;98.80
9542;DHT22;4809;48.224;8.572;2023-05-28T04:09:22;10.70;99.00
9542;DHT22;4809;48.224;8.572;2023-05-28T04:11:48;10.70;98.70
9542;DHT22;4809;48.224;8.572;2023-05-28T04:14:14;10.80;98.70
9542;DHT22;4809;48.224;8.572;2023-05-28T04:16:40;10.80;98.50
9542;DHT22;4809;48.224;8.572;2023-05-28T04:19:05;10.90;98.40
9542;DHT22;4809;48.224;8.572;2023-05-28T04:21:31;10.90;98.30
9542;DHT22;4809;48.224;8.572;2023-05-28T04:23:57;10.80;98.70
9542;DHT22;4809;48.224;8.572;2023-05-28T04:26:23;10.90;99.10
9542;DHT22;4809;48.224;8.572;2023-05-28T04:28:49;11.00;99.30
9542;DHT22;4809;48.224;8.572;2023-05-28T04:31:16;11.00;99.40
9542;DHT22;4809;48.224;8.572;2023-05-28T04:33:42;11.10;99.30
9542;DHT22;4809;48.224;8.572;2023-05-28T04:36:11;11.10;99.10
9542;DHT22;4809;48.224;8.572;2023-05-28T04:38:39;11.20;98.80
9542;DHT22;4809;48.224;8.572;2023-05-28T04:41:05;11.30;99.00
9542;DHT22;4809;48.224;8.572;2023-05-28T04:43:31;11.40;98.90
9542;DHT22;4809;48.224;8.572;2023-05-28T04:45:58;11.50;99.40
9542;DHT22;4809;48.224;8.572;2023-05-28T04:48:25;11.60;99.90
9542;DHT22;4809;48.224;8.572;2023-05-28T04:50:53;11.60;99.90
9542;DHT22;4809;48.224;8.572;2023-05-28T04:53:19;11.70;99.90
9542;DHT22;4809;48.224;8.572;2023-05-28T04:55:45;11.70;99.40
9542;DHT22;4809;48.224;8.572;2023-05-28T04:58:10;11.80;99.30
9542;DHT22;4809;48.224;8.572;2023-05-28T05:00:37;11.90;98.90
9542;DHT22;4809;48.224;8.572;2023-05-28T05:03:03;12.10;99.20
9542;DHT22;4809;48.224;8.572;2023-05-28T05:05:29;12.10;99.10
9542;DHT22;4809;48.224;8.572;2023-05-28T05:07:54;12.20;99.00
9542;DHT22;4809;48.224;8.572;2023-05-28T05:10:20;12.30;99.00
9542;DHT22;4809;48.224;8.572;2023-05-28T05:12:46;12.40;98.60
9542;DHT22;4809;48.224;8.572;2023-05-28T05:15:11;12.50;98.30
9542;DHT22;4809;48.224;8.572;2023-05-28T05:17:37;12.50;98.20
9542;DHT22;4809;48.224;8.572;2023-05-28T05:20:04;12.70;98.00
9542;DHT22;4809;48.224;8.572;2023-05-28T05:22:33;12.90;97.50
9542;DHT22;4809;48.224;8.572;2023-05-28T05:24:58;13.00;96.80
9542;DHT22;4809;48.224;8.572;2023-05-28T05:27:24;13.10;96.30
9542;DHT22;4809;48.224;8.572;2023-05-28T05:29:50;13.20;96.00
9542;DHT22;4809;48.224;8.572;2023-05-28T05:32:15;13.40;98.00
9542;DHT22;4809;48.224;8.572;2023-05-28T05:34:41;13.60;97.90
9542;DHT22;4809;48.224;8.572;2023-05-28T05:37:07;13.70;97.20
9542;DHT22;4809;48.224;8.572;2023-05-28T05:39:32;13.80;95.90
9542;DHT22;4809;48.224;8.572;2023-05-28T05:41:58;14.00;95.00
9542;DHT22;4809;48.224;8.572;2023-05-28T05:44:25;14.10;95.00
9542;DHT22;4809;48.224;8.572;2023-05-28T05:46:51;14.20;94.60
9542;DHT22;4809;48.224;8.572;2023-05-28T05:49:17;14.30;93.80
9542;DHT22;4809;48.224;8.572;2023-05-28T05:51:43;14.40;94.00
9542;DHT22;4809;48.224;8.572;2023-05-28T05:54:08;14.60;94.50
9542;DHT22;4809;48.224;8.572;2023-05-28T05:56:34;14.70;94.10
9542;DHT22;4809;48.224;8.572;2023-05-28T05:59:00;14.80;93.30
9542;DHT22;4809;48.224;8.572;2023-05-28T06:01:26;14.90;93.40
9542;DHT22;4809;48.224;8.572;2023-05-28T06:03:51;15.00;93.10
9542;DHT22;4809;48.224;8.572;2023-05-28T06:06:17;15.10;92.60
9542;DHT22;4809;48.224;8.572;2023-05-28T06:08:43;15.20;92.90
9542;DHT22;4809;48.224;8.572;2023-05-28T06:11:09;15.30;92.70
9542;DHT22;4809;48.224;8.572;2023-05-28T06:13:35;15.40;92.20
9542;DHT22;4809;48.224;8.572;2023-05-28T06:16:02;15.40;91.40
9542;DHT22;4809;48.224;8.572;2023-05-28T06:18:32;15.50;91.90
9542;DHT22;4809;48.224;8.572;2023-05-28T06:20:57;15.70;91.40
9542;DHT22;4809;48.224;8.572;2023-05-28T06:23:23;15.80;91.20
9542;DHT22;4809;48.224;8.572;2023-05-28T06:25:49;15.90;91.90
9542;DHT22;4809;48.224;8.572;2023-05-28T06:28:15;16.00;91.50
9542;DHT22;4809;48.224;8.572;2023-05-28T06:30:41;16.10;91.10
9542;DHT22;4809;48.224;8.572;2023-05-28T06:33:07;16.30;90.30
9542;DHT22;4809;48.224;8.572;2023-05-28T06:35:34;16.40;90.30
9542;DHT22;4809;48.224;8.572;2023-05-28T06:38:00;16.50;90.20
9542;DHT22;4809;48.224;8.572;2023-05-28T06:40:26;16.60;89.10
9542;DHT22;4809;48.224;8.572;2023-05-28T06:42:52;16.80;88.10
9542;DHT22;4809;48.224;8.572;2023-05-28T06:45:17;16.90;88.20
9542;DHT22;4809;48.224;8.572;2023-05-28T06:47:44;17.00;87.40
9542;DHT22;4809;48.224;8.572;2023-05-28T06:50:10;17.10;88.50
9542;DHT22;4809;48.224;8.572;2023-05-28T06:52:36;17.10;87.90
9542;DHT22;4809;48.224;8.572;2023-05-28T06:55:01;17.10;89.70
9542;DHT22;4809;48.224;8.572;2023-05-28T06:57:27;17.30;88.40
9542;DHT22;4809;48.224;8.572;2023-05-28T06:59:53;17.50;88.40
9542;DHT22;4809;48.224;8.572;2023-05-28T07:02:18;17.70;88.90
9542;DHT22;4809;48.224;8.572;2023-05-28T07:04:44;17.80;86.70
9542;DHT22;4809;48.224;8.572;2023-05-28T07:07:10;18.00;85.80
9542;DHT22;4809;48.224;8.572;2023-05-28T07:09:36;18.20;85.70
9542;DHT22;4809;48.224;8.572;2023-05-28T07:12:02;18.40;85.00
9542;DHT22;4809;48.224;8.572;2023-05-28T07:14:28;18.50;84.60
9542;DHT22;4809;48.224;8.572;2023-05-28T07:16:53;18.70;85.00
9542;DHT22;4809;48.224;8.572;2023-05-28T07:19:19;18.90;84.60
9542;DHT22;4809;48.224;8.572;2023-05-28T07:21:46;19.00;81.60
9542;DHT22;4809;48.224;8.572;2023-05-28T07:24:12;19.10;84.20
9542;DHT22;4809;48.224;8.572;2023-05-28T07:26:37;19.30;83.90
9542;DHT22;4809;48.224;8.572;2023-05-28T07:29:03;19.50;82.70
9542;DHT22;4809;48.224;8.572;2023-05-28T07:31:29;19.60;82.20
9542;DHT22;4809;48.224;8.572;2023-05-28T07:33:57;19.80;82.90
9542;DHT22;4809;48.224;8.572;2023-05-28T07:36:23;19.90;81.70
9542;DHT22;4809;48.224;8.572;2023-05-28T07:38:48;19.90;79.10
9542;DHT22;4809;48.224;8.572;2023-05-28T07:41:14;20.10;80.90
9542;DHT22;4809;48.224;8.572;2023-05-28T07:43:40;20.20;78.80
9542;DHT22;4809;48.224;8.572;2023-05-28T07:46:06;20.30;78.80
9542;DHT22;4809;48.224;8.572;2023-05-28T07:48:31;20.50;80.40
9542;DHT22;4809;48.224;8.572;2023-05-28T07:50:57;20.70;78.70
9542;DHT22;4809;48.224;8.572;2023-05-28T07:53:23;20.80;75.90
9542;DHT22;4809;48.224;8.572;2023-05-28T07:55:50;20.90;78.30
9542;DHT22;4809;48.224;8.572;2023-05-28T07:58:16;21.10;78.10
9542;DHT22;4809;48.224;8.572;2023-05-28T08:00:41;21.10;77.20
9542;DHT22;4809;48.224;8.572;2023-05-28T08:03:07;21.10;76.40
9542;DHT22;4809;48.224;8.572;2023-05-28T08:05:33;21.30;77.50
9542;DHT22;4809;48.224;8.572;2023-05-28T08:07:59;21.50;78.20
9542;DHT22;4809;48.224;8.572;2023-05-28T08:10:24;21.70;76.60
9542;DHT22;4809;48.224;8.572;2023-05-28T08:12:50;21.70;75.40
9542;DHT22;4809;48.224;8.572;2023-05-28T08:15:16;21.90;77.50
9542;DHT22;4809;48.224;8.572;2023-05-28T08:17:42;22.00;74.90
9542;DHT22;4809;48.224;8.572;2023-05-28T08:20:08;22.10;72.40
9542;DHT22;4809;48.224;8.572;2023-05-28T08:22:37;22.10;69.50
9542;DHT22;4809;48.224;8.572;2023-05-28T08:25:03;22.30;74.80
9542;DHT22;4809;48.224;8.572;2023-05-28T08:27:31;22.40;74.00
9542;DHT22;4809;48.224;8.572;2023-05-28T08:29:57;22.50;70.10
9542;DHT22;4809;48.224;8.572;2023-05-28T08:32:23;22.60;71.20
9542;DHT22;4809;48.224;8.572;2023-05-28T08:34:48;22.70;69.70
9542;DHT22;4809;48.224;8.572;2023-05-28T08:37:14;22.60;70.70
9542;DHT22;4809;48.224;8.572;2023-05-28T08:39:40;22.70;72.70
9542;DHT22;4809;48.224;8.572;2023-05-28T08:42:06;22.80;69.90
9542;DHT22;4809;48.224;8.572;2023-05-28T08:44:32;23.00;71.10
9542;DHT22;4809;48.224;8.572;2023-05-28T08:46:59;23.20;70.50
9542;DHT22;4809;48.224;8.572;2023-05-28T08:49:32;23.50;70.90
9542;DHT22;4809;48.224;8.572;2023-05-28T08:52:01;23.60;68.40
9542;DHT22;4809;48.224;8.572;2023-05-28T08:54:29;23.60;66.40
9542;DHT22;4809;48.224;8.572;2023-05-28T08:56:56;23.70;66.20
9542;DHT22;4809;48.224;8.572;2023-05-28T08:59:22;23.60;65.70
9542;DHT22;4809;48.224;8.572;2023-05-28T09:01:49;23.60;63.80
9542;DHT22;4809;48.224;8.572;2023-05-28T09:04:15;23.60;65.10
9542;DHT22;4809;48.224;8.572;2023-05-28T09:06:41;23.60;65.70
9542;DHT22;4809;48.224;8.572;2023-05-28T09:09:07;23.60;66.00
9542;DHT22;4809;48.224;8.572;2023-05-28T09:11:37;23.60;63.40
9542;DHT22;4809;48.224;8.572;2023-05-28T09:14:13;23.60;63.20
9542;DHT22;4809;48.224;8.572;2023-05-28T09:16:43;23.90;60.90
9542;DHT22;4809;48.224;8.572;2023-05-28T09:19:09;24.10;64.20
9542;DHT22;4809;48.224;8.572;2023-05-28T09:21:35;24.20;59.70
9542;DHT22;4809;48.224;8.572;2023-05-28T09:24:04;24.40;62.30
9542;DHT22;4809;48.224;8.572;2023-05-28T09:26:31;24.50;59.60
9542;DHT22;4809;48.224;8.572;2023-05-28T09:28:57;24.80;60.80
9542;DHT22;4809;48.224;8.572;2023-05-28T09:31:30;24.90;61.30
9542;DHT22;4809;48.224;8.572;2023-05-28T09:33:59;25.10;58.40
9542;DHT22;4809;48.224;8.572;2023-05-28T09:36:26;25.20;61.60
9542;DHT22;4809;48.224;8.572;2023-05-28T09:38:53;25.00;57.10
9542;DHT22;4809;48.224;8.572;2023-05-28T09:41:20;25.10;58.40
9542;DHT22;4809;48.224;8.572;2023-05-28T09:43:46;25.20;61.80
9542;DHT22;4809;48.224;8.572;2023-05-28T09:46:20;25.30;60.50
9542;DHT22;4809;48.224;8.572;2023-05-28T09:48:45;25.50;58.70
9542;DHT22;4809;48.224;8.572;2023-05-28T09:51:12;25.30;59.80
9542;DHT22;4809;48.224;8.572;2023-05-28T09:53:43;25.20;58.90
9542;DHT22;4809;48.224;8.572;2023-05-28T09:56:12;25.30;58.50
9542;DHT22;4809;48.224;8.572;2023-05-28T09:58:39;25.30;57.50
9542;DHT22;4809;48.224;8.572;2023-05-28T10:01:12;25.30;57.30
9542;DHT22;4809;48.224;8.572;2023-05-28T10:03:43;25.70;60.80
9542;DHT22;4809;48.224;8.572;2023-05-28T10:06:22;26.00;56.90
9542;DHT22;4809;48.224;8.572;2023-05-28T10:08:53;26.20;57.60
9542;DHT22;4809;48.224;8.572;2023-05-28T10:11:25;26.20;54.50
9542;DHT22;4809;48.224;8.572;2023-05-28T10:13:56;26.30;53.70
9542;DHT22;4809;48.224;8.572;2023-05-28T10:16:22;26.40;53.80
9542;DHT22;4809;48.224;8.572;2023-05-28T10:18:48;26.50;52.40
9542;DHT22;4809;48.224;8.572;2023-05-28T10:21:14;26.40;53.70
9542;DHT22;4809;48.224;8.572;2023-05-28T10:23:41;26.50;54.50
9542;DHT22;4809;48.224;8.572;2023-05-28T10:26:08;26.60;54.90
9542;DHT22;4809;48.224;8.572;2023-05-28T10:28:35;26.70;53.90
9542;DHT22;4809;48.224;8.572;2023-05-28T10:31:07;26.60;54.10
9542;DHT22;4809;48.224;8.572;2023-05-28T10:33:40;26.70;53.30
9542;DHT22;4809;48.224;8.572;2023-05-28T10:36:14;26.80;51.70
9542;DHT22;4809;48.224;8.572;2023-05-28T10:41:18;26.90;52.10
9542;DHT22;4809;48.224;8.572;2023-05-28T10:43:44;27.00;51.10
9542;DHT22;4809;48.224;8.572;2023-05-28T10:46:20;27.10;52.60
9542;DHT22;4809;48.224;8.572;2023-05-28T10:49:10;27.30;50.90
9542;DHT22;4809;48.224;8.572;2023-05-28T10:51:56;27.30;52.30
9542;DHT22;4809;48.224;8.572;2023-05-28T11:02:18;27.30;49.30
9542;DHT22;4809;48.224;8.572;2023-05-28T11:04:59;27.40;51.70
9542;DHT22;4809;48.224;8.572;2023-05-28T11:07:41;27.50;51.90
9542;DHT22;4809;48.224;8.572;2023-05-28T11:10:09;27.60;50.60
9542;DHT22;4809;48.224;8.572;2023-05-28T11:12:39;28.00;50.30
9542;DHT22;4809;48.224;8.572;2023-05-28T11:15:09;28.20;50.00
9542;DHT22;4809;48.224;8.572;2023-05-28T11:17:43;28.30;48.90
9542;DHT22;4809;48.224;8.572;2023-05-28T11:20:22;28.20;47.10
9542;DHT22;4809;48.224;8.572;2023-05-28T11:22:50;28.30;48.00
9542;DHT22;4809;48.224;8.572;2023-05-28T11:25:16;28.40;47.80
9542;DHT22;4809;48.224;8.572;2023-05-28T11:27:42;28.20;47.80
9542;DHT22;4809;48.224;8.572;2023-05-28T11:30:09;28.20;48.00
9542;DHT22;4809;48.224;8.572;2023-05-28T11:32:35;28.20;49.20
9542;DHT22;4809;48.224;8.572;2023-05-28T11:35:01;28.50;50.30
9542;DHT22;4809;48.224;8.572;2023-05-28T11:37:31;28.80;48.30
9542;DHT22;4809;48.224;8.572;2023-05-28T11:39:58;28.80;46.00
9542;DHT22;4809;48.224;8.572;2023-05-28T11:42:26;28.70;47.90
9542;DHT22;4809;48.224;8.572;2023-05-28T11:44:52;28.40;45.20
9542;DHT22;4809;48.224;8.572;2023-05-28T11:47:18;28.50;47.10
9542;DHT22;4809;48.224;8.572;2023-05-28T11:49:44;28.40;47.50
9542;DHT22;4809;48.224;8.572;2023-05-28T11:52:15;28.60;49.70
9542;DHT22;4809;48.224;8.572;2023-05-28T11:54:42;28.80;43.10
9542;DHT22;4809;48.224;8.572;2023-05-28T11:57:09;28.70;41.00
9542;DHT22;4809;48.224;8.572;2023-05-28T11:59:35;28.70;42.70
9542;DHT22;4809;48.224;8.572;2023-05-28T12:02:15;28.80;42.30
9542;DHT22;4809;48.224;8.572;2023-05-28T12:05:00;29.10;46.00
9542;DHT22;4809;48.224;8.572;2023-05-28T12:07:33;29.10;45.00
9542;DHT22;4809;48.224;8.572;2023-05-28T12:12:29;29.20;44.20
9542;DHT22;4809;48.224;8.572;2023-05-28T12:15:06;29.20;43.70
9542;DHT22;4809;48.224;8.572;2023-05-28T12:17:40;29.30;45.30
9542;DHT22;4809;48.224;8.572;2023-05-28T12:23:10;29.40;45.30
9542;DHT22;4809;48.224;8.572;2023-05-28T12:28:13;29.40;43.60
9542;DHT22;4809;48.224;8.572;2023-05-28T12:30:40;29.30;44.30
9542;DHT22;4809;48.224;8.572;2023-05-28T12:33:06;29.50;42.90
9542;DHT22;4809;48.224;8.572;2023-05-28T12:35:31;29.60;42.30
9542;DHT22;4809;48.224;8.572;2023-05-28T12:37:57;29.70;45.70
9542;DHT22;4809;48.224;8.572;2023-05-28T12:40:23;29.70;43.50
9542;DHT22;4809;48.224;8.572;2023-05-28T12:42:48;29.70;44.70
9542;DHT22;4809;48.224;8.572;2023-05-28T12:45:14;30.00;44.60
9542;DHT22;4809;48.224;8.572;2023-05-28T12:47:40;30.20;45.20
9542;DHT22;4809;48.224;8.572;2023-05-28T12:50:05;30.20;41.90
9542;DHT22;4809;48.224;8.572;2023-05-28T12:52:31;30.40;43.00
9542;DHT22;4809;48.224;8.572;2023-05-28T12:55:02;30.20;43.20
9542;DHT22;4809;48.224;8.572;2023-05-28T12:57:28;30.20;42.60
9542;DHT22;4809;48.224;8.572;2023-05-28T12:59:55;30.10;44.20
9542;DHT22;4809;48.224;8.572;2023-05-28T13:02:21;30.30;44.20
9542;DHT22;4809;48.224;8.572;2023-05-28T13:04:47;30.50;42.00
9542;DHT22;4809;48.224;8.572;2023-05-28T13:07:12;30.60;42.80
9542;DHT22;4809;48.224;8.572;2023-05-28T13:09:38;30.50;43.30
9542;DHT22;4809;48.224;8.572;2023-05-28T13:12:04;30.50;41.90
9542;DHT22;4809;48.224;8.572;2023-05-28T13:14:31;30.50;41.50
9542;DHT22;4809;48.224;8.572;2023-05-28T13:16:57;30.50;41.10
9542;DHT22;4809;48.224;8.572;2023-05-28T13:19:24;30.20;41.90
9542;DHT22;4809;48.224;8.572;2023-05-28T13:21:50;30.20;42.70
9542;DHT22;4809;48.224;8.572;2023-05-28T13:24:16;30.40;42.50
9542;DHT22;4809;48.224;8.572;2023-05-28T13:26:42;30.50;41.60
9542;DHT22;4809;48.224;8.572;2023-05-28T13:29:08;30.40;40.80
9542;DHT22;4809;48.224;8.572;2023-05-28T13:31:34;30.40;42.10
9542;DHT22;4809;48.224;8.572;2023-05-28T13:34:00;30.60;42.20
9542;DHT22;4809;48.224;8.572;2023-05-28T13:36:26;30.60;38.80
9542;DHT22;4809;48.224;8.572;2023-05-28T13:38:52;30.70;39.00
9542;DHT22;4809;48.224;8.572;2023-05-28T13:41:19;30.60;40.60
9542;DHT22;4809;48.224;8.572;2023-05-28T13:43:46;30.60;41.90
9542;DHT22;4809;48.224;8.572;2023-05-28T13:46:15;30.50;41.20
9542;DHT22;4809;48.224;8.572;2023-05-28T13:48:41;30.60;39.80
9542;DHT22;4809;48.224;8.572;2023-05-28T13:51:07;30.40;40.40
9542;DHT22;4809;48.224;8.572;2023-05-28T13:53:34;30.40;41.20
9542;DHT22;4809;48.224;8.572;2023-05-28T13:55:59;30.50;38.50
9542;DHT22;4809;48.224;8.572;2023-05-28T13:58:25;30.20;40.10
9542;DHT22;4809;48.224;8.572;2023-05-28T14:00:51;30.00;40.50
9542;DHT22;4809;48.224;8.572;2023-05-28T14:03:16;30.00;40.60
9542;DHT22;4809;48.224;8.572;2023-05-28T14:05:45;30.10;42.10
9542;DHT22;4809;48.224;8.572;2023-05-28T14:08:11;30.40;41.80
9542;DHT22;4809;48.224;8.572;2023-05-28T14:10:37;30.70;41.30
9542;DHT22;4809;48.224;8.572;2023-05-28T14:13:03;30.90;40.50
9542;DHT22;4809;48.224;8.572;2023-05-28T14:15:29;30.90;40.50
9542;DHT22;4809;48.224;8.572;2023-05-28T14:17:54;30.80;39.20
9542;DHT22;4809;48.224;8.572;2023-05-28T14:20:20;30.50;40.10
9542;DHT22;4809;48.224;8.572;2023-05-28T14:22:46;30.30;40.60
9542;DHT22;4809;48.224;8.572;2023-05-28T14:25:11;30.20;39.60
9542;DHT22;4809;48.224;8.572;2023-05-28T14:27:37;30.20;39.70
9542;DHT22;4809;48.224;8.572;2023-05-28T14:30:04;30.50;40.20
9542;DHT22;4809;48.224;8.572;2023-05-28T14:32:30;30.60;40.20
9542;DHT22;4809;48.224;8.572;2023-05-28T14:34:59;30.60;39.00
9542;DHT22;4809;48.224;8.572;2023-05-28T14:37:24;30.50;40.40
9542;DHT22;4809;48.224;8.572;2023-05-28T14:39:50;30.40;39.20
9542;DHT22;4809;48.224;8.572;2023-05-28T14:42:16;30.60;38.70
9542;DHT22;4809;48.224;8.572;2023-05-28T14:44:41;30.70;38.60
9542;DHT22;4809;48.224;8.572;2023-05-28T14:47:07;30.70;38.30
9542;DHT22;4809;48.224;8.572;2023-05-28T14:49:33;30.80;38.20
9542;DHT22;4809;48.224;8.572;2023-05-28T14:54:48;30.90;37.00
9542;DHT22;4809;48.224;8.572;2023-05-28T14:57:13;31.00;37.30
9542;DHT22;4809;48.224;8.572;2023-05-28T14:59:39;30.90;36.30
9542;DHT22;4809;48.224;8.572;2023-05-28T15:02:05;30.90;36.40
9542;DHT22;4809;48.224;8.572;2023-05-28T15:04:31;30.90;35.30
9542;DHT22;4809;48.224;8.572;2023-05-28T15:06:56;30.90;35.50
9542;DHT22;4809;48.224;8.572;2023-05-28T15:09:26;31.00;35.10
9542;DHT22;4809;48.224;8.572;2023-05-28T15:11:51;31.10;34.30
9542;DHT22;4809;48.224;8.572;2023-05-28T15:14:17;30.90;37.00
9542;DHT22;4809;48.224;8.572;2023-05-28T15:16:44;30.90;32.20
9542;DHT22;4809;48.224;8.572;2023-05-28T15:19:10;30.70;34.40
9542;DHT22;4809;48.224;8.572;2023-05-28T15:21:36;30.50;35.40
9542;DHT22;4809;48.224;8.572;2023-05-28T15:24:01;30.60;34.90
9542;DHT22;4809;48.224;8.572;2023-05-28T15:26:27;30.80;35.50
9542;DHT22;4809;48.224;8.572;2023-05-28T15:28:53;30.80;34.70
9542;DHT22;4809;48.224;8.572;2023-05-28T15:31:19;30.50;34.20
9542;DHT22;4809;48.224;8.572;2023-05-28T15:33:46;30.30;35.00
9542;DHT22;4809;48.224;8.572;2023-05-28T15:36:12;30.30;34.50
9542;DHT22;4809;48.224;8.572;2023-05-28T15:38:38;30.40;35.00
9542;DHT22;4809;48.224;8.572;2023-05-28T15:41:04;30.20;34.80
9542;DHT22;4809;48.224;8.572;2023-05-28T15:43:30;30.20;34.40
9542;DHT22;4809;48.224;8.572;2023-05-28T15:45:56;30.20;35.80
9542;DHT22;4809;48.224;8.572;2023-05-28T15:48:21;30.10;35.60
9542;DHT22;4809;48.224;8.572;2023-05-28T15:50:47;29.90;35.90
9542;DHT22;4809;48.224;8.572;2023-05-28T15:53:13;29.80;34.20
9542;DHT22;4809;48.224;8.572;2023-05-28T15:55:39;29.80;33.80
9542;DHT22;4809;48.224;8.572;2023-05-28T15:58:05;29.80;33.80
9542;DHT22;4809;48.224;8.572;2023-05-28T16:00:30;29.80;34.50
9542;DHT22;4809;48.224;8.572;2023-05-28T16:02:57;29.80;32.80
9542;DHT22;4809;48.224;8.572;2023-05-28T16:05:23;29.60;35.00
9542;DHT22;4809;48.224;8.572;2023-05-28T16:07:49;29.30;33.10
9542;DHT22;4809;48.224;8.572;2023-05-28T16:10:15;29.10;34.90
9542;DHT22;4809;48.224;8.572;2023-05-28T16:12:43;28.90;34.70
9542;DHT22;4809;48.224;8.572;2023-05-28T16:15:09;28.70;35.30
9542;DHT22;4809;48.224;8.572;2023-05-28T16:17:38;28.50;35.00
9542;DHT22;4809;48.224;8.572;2023-05-28T16:20:06;28.20;36.80